Time,TemperatureF,DewpointF,PressureIn,WindDirection,WindDirectionDegrees,WindSpeedMPH,WindSpeedGustMPH,Humidity,HourlyPrecipIn,Conditions,Clouds,dailyrainin,SoftwareType,DateUTC
2013-02-14 00:00:00,33.5,25.4,29.65,West,270,0.2,0.2,72,0.00,,,0.00,WUHU216HW,2013-02-14 05:00:00,
2013-02-14 00:06:00,33.5,25.4,29.65,West,270,0.2,0.2,72,0.00,,,0.00,WUHU216HW,2013-02-14 05:06:00,
2013-02-14 00:30:00,32.9,24.8,29.66,NW,315,0.0,0.0,72,2.59,,,0.00,WUHU216HW,2013-02-14 05:30:00,
2013-02-14 00:35:00,32.9,24.8,29.66,NW,315,0.0,0.0,72,2.59,,,0.00,WUHU216HW,2013-02-14 05:35:00,
2013-02-14 01:00:00,31.9,25.2,29.65,West,270,0.0,0.0,76,2.59,,,0.00,WUHU216HW,2013-02-14 06:00:00,
2013-02-14 01:05:00,31.9,25.2,29.65,West,270,0.0,0.0,76,2.59,,,0.00,WUHU216HW,2013-02-14 06:05:00,
2013-02-14 01:30:00,31.1,25.1,29.64,WSW,248,0.0,0.0,78,0.00,,,0.00,WUHU216HW,2013-02-14 06:30:00,
2013-02-14 01:35:00,31.1,25.1,29.64,WSW,248,0.0,0.0,78,0.00,,,0.00,WUHU216HW,2013-02-14 06:35:00,
2013-02-14 02:00:00,30.6,24.6,29.64,SW,225,0.0,0.0,78,0.00,,,0.00,WUHU216HW,2013-02-14 07:00:00,
2013-02-14 02:05:00,30.6,24.6,29.64,SW,225,0.0,0.0,78,0.00,,,0.00,WUHU216HW,2013-02-14 07:05:00,
2013-02-14 02:30:00,29.9,23.9,29.65,SW,225,0.0,0.0,78,0.00,,,0.00,WUHU216HW,2013-02-14 07:30:00,
2013-02-14 02:35:00,29.9,23.9,29.65,SW,225,0.0,0.0,78,0.00,,,0.00,WUHU216HW,2013-02-14 07:35:00,
2013-02-14 03:00:00,29.5,23.8,29.67,NNW,338,0.0,0.0,79,0.00,,,0.00,WUHU216HW,2013-02-14 08:00:00,
2013-02-14 03:05:00,29.5,23.8,29.67,NNW,338,0.0,0.0,79,0.00,,,0.00,WUHU216HW,2013-02-14 08:05:00,
2013-02-14 07:30:00,22.9,18.2,29.76,NE,45,0.0,0.0,82,0.00,,,0.00,WUHU216HW,2013-02-14 12:30:00,
2013-02-14 07:35:00,22.9,18.2,29.76,NE,45,0.0,0.0,82,0.00,,,0.00,WUHU216HW,2013-02-14 12:35:00,
2013-02-14 08:00:00,23.2,18.5,29.79,NE,45,0.0,0.0,82,0.00,,,0.00,WUHU216HW,2013-02-14 13:00:00,
2013-02-14 08:05:00,23.2,18.5,29.79,NE,45,0.0,0.0,82,0.00,,,0.00,WUHU216HW,2013-02-14 13:05:00,
2013-02-14 08:30:00,25.9,21.2,29.80,North,0,0.2,0.2,82,0.00,,,0.00,WUHU216HW,2013-02-14 13:30:00,
2013-02-14 08:35:00,25.9,21.2,29.80,North,0,0.2,0.2,82,0.00,,,0.00,WUHU216HW,2013-02-14 13:35:00,
2013-02-14 09:00:00,33.1,27.3,29.82,NW,315,0.2,0.2,79,0.00,,,0.00,WUHU216HW,2013-02-14 14:00:00,
2013-02-14 09:05:00,33.1,27.3,29.82,NW,315,0.2,0.2,79,0.00,,,0.00,WUHU216HW,2013-02-14 14:05:00,
2013-02-14 09:30:00,34.2,26.4,29.81,North,0,1.1,1.1,73,0.00,,,0.00,WUHU216HW,2013-02-14 14:30:00,
2013-02-14 09:35:00,34.2,26.4,29.81,North,0,1.1,1.1,73,0.00,,,0.00,WUHU216HW,2013-02-14 14:35:00,
2013-02-14 10:00:00,38.5,29.3,29.82,North,0,0.2,0.2,69,0.00,,,0.00,WUHU216HW,2013-02-14 15:00:00,
2013-02-14 10:05:00,38.5,29.3,29.82,North,0,0.2,0.2,69,0.00,,,0.00,WUHU216HW,2013-02-14 15:05:00,
2013-02-14 10:30:00,41.9,30.3,29.84,North,0,1.1,1.1,63,0.00,,,0.00,WUHU216HW,2013-02-14 15:30:00,
2013-02-14 10:35:00,41.9,30.3,29.84,North,0,1.1,1.1,63,0.00,,,0.00,WUHU216HW,2013-02-14 15:35:00,
2013-02-14 11:00:00,40.9,26.3,29.84,West,270,2.5,2.5,56,0.00,,,0.00,WUHU216HW,2013-02-14 16:00:00,
2013-02-14 11:05:00,40.9,26.3,29.84,West,270,2.5,2.5,56,0.00,,,0.00,WUHU216HW,2013-02-14 16:05:00,
2013-02-14 11:30:00,40.9,24.9,29.84,NNE,23,1.6,1.6,53,0.00,,,0.00,WUHU216HW,2013-02-14 16:30:00,
2013-02-14 11:35:00,40.9,24.9,29.84,NNE,23,1.6,1.6,53,0.00,,,0.00,WUHU216HW,2013-02-14 16:35:00,
2013-02-14 12:00:00,45.0,25.9,29.84,WNW,293,1.6,1.6,47,0.00,,,0.00,WUHU216HW,2013-02-14 17:00:00,
2013-02-14 12:05:00,45.0,25.9,29.84,WNW,293,1.6,1.6,47,0.00,,,0.00,WUHU216HW,2013-02-14 17:05:00,
2013-02-14 12:30:00,44.1,26.7,29.83,NW,315,0.7,0.7,50,0.00,,,0.00,WUHU216HW,2013-02-14 17:30:00,
2013-02-14 12:35:00,44.1,26.7,29.83,NW,315,0.7,0.7,50,0.00,,,0.00,WUHU216HW,2013-02-14 17:35:00,
2013-02-14 13:00:00,43.9,26.6,29.83,East,90,0.4,0.4,50,0.00,,,0.00,WUHU216HW,2013-02-14 18:00:00,
2013-02-14 13:05:00,43.9,26.6,29.83,East,90,0.4,0.4,50,0.00,,,0.00,WUHU216HW,2013-02-14 18:05:00,
2013-02-14 13:30:00,47.5,26.6,29.82,SSW,203,0.7,0.7,44,0.00,,,0.00,WUHU216HW,2013-02-14 18:30:00,
2013-02-14 13:35:00,47.5,26.6,29.82,SSW,203,0.7,0.7,44,0.00,,,0.00,WUHU216HW,2013-02-14 18:35:00,
2013-02-14 14:00:00,46.4,26.6,29.82,North,0,0.4,0.4,46,0.00,,,0.00,WUHU216HW,2013-02-14 19:00:00,
2013-02-14 14:05:00,46.4,26.6,29.82,North,0,0.4,0.4,46,0.00,,,0.00,WUHU216HW,2013-02-14 19:05:00,
2013-02-14 14:30:00,45.5,24.2,29.84,WNW,293,0.2,0.2,43,0.00,,,0.00,WUHU216HW,2013-02-14 19:30:00,
2013-02-14 14:35:00,45.5,24.2,29.84,WNW,293,0.2,0.2,43,0.00,,,0.00,WUHU216HW,2013-02-14 19:35:00,
2013-02-14 15:00:00,44.1,24.0,29.84,SE,135,0.0,0.0,45,0.00,,,0.00,WUHU216HW,2013-02-14 20:00:00,
2013-02-14 15:05:00,44.1,24.0,29.84,SE,135,0.0,0.0,45,0.00,,,0.00,WUHU216HW,2013-02-14 20:05:00,
2013-02-14 15:30:00,44.5,24.3,29.84,SW,225,3.4,3.4,45,0.00,,,0.00,WUHU216HW,2013-02-14 20:30:00,
2013-02-14 15:35:00,44.5,24.3,29.84,SW,225,3.4,3.4,45,0.00,,,0.00,WUHU216HW,2013-02-14 20:35:00,
2013-02-14 16:00:00,43.6,24.6,29.85,SSW,203,2.5,2.5,47,0.00,,,0.00,WUHU216HW,2013-02-14 21:00:00,
2013-02-14 16:05:00,43.6,24.6,29.85,SSW,203,2.5,2.5,47,0.00,,,0.00,WUHU216HW,2013-02-14 21:05:00,
2013-02-14 16:30:00,41.9,24.7,29.86,SSE,158,0.4,0.4,50,0.00,,,0.00,WUHU216HW,2013-02-14 21:30:00,
2013-02-14 16:35:00,41.9,24.7,29.86,SSE,158,0.4,0.4,50,0.00,,,0.00,WUHU216HW,2013-02-14 21:35:00,
2013-02-14 17:00:00,40.3,24.0,29.86,SSE,158,0.2,0.2,52,0.00,,,0.00,WUHU216HW,2013-02-14 22:00:00,
2013-02-14 17:05:00,40.3,24.0,29.86,SSE,158,0.2,0.2,52,0.00,,,0.00,WUHU216HW,2013-02-14 22:05:00,
2013-02-14 17:30:00,37.4,22.7,29.87,SE,135,0.0,0.0,55,0.00,,,0.00,WUHU216HW,2013-02-14 22:30:00,
2013-02-14 17:35:00,37.4,22.7,29.87,SE,135,0.0,0.0,55,0.00,,,0.00,WUHU216HW,2013-02-14 22:35:00,
2013-02-14 18:00:00,35.1,22.2,29.89,SE,135,0.0,0.0,59,0.00,,,0.00,WUHU216HW,2013-02-14 23:00:00,
2013-02-14 18:05:00,35.1,22.2,29.89,SE,135,0.0,0.0,59,0.00,,,0.00,WUHU216HW,2013-02-14 23:05:00,
2013-02-14 18:30:00,33.5,21.4,29.89,SE,135,0.0,0.0,61,0.00,,,0.00,WUHU216HW,2013-02-14 23:30:00,
2013-02-14 18:35:00,33.5,21.4,29.89,SE,135,0.0,0.0,61,0.00,,,0.00,WUHU216HW,2013-02-14 23:35:00,
2013-02-14 19:00:00,32.2,21.4,29.90,ENE,68,0.0,0.0,64,0.00,,,0.00,WUHU216HW,2013-02-15 00:00:00,
2013-02-14 19:05:00,32.2,21.4,29.90,ENE,68,0.0,0.0,64,0.00,,,0.00,WUHU216HW,2013-02-15 00:05:00,
2013-02-14 19:30:00,32.0,21.6,29.91,SE,135,0.0,0.0,65,0.00,,,0.00,WUHU216HW,2013-02-15 00:30:00,
2013-02-14 19:35:00,32.0,21.6,29.91,SE,135,0.0,0.0,65,0.00,,,0.00,WUHU216HW,2013-02-15 00:35:00,
2013-02-14 20:00:00,31.7,21.6,29.91,SE,135,0.4,0.4,66,0.00,,,0.00,WUHU216HW,2013-02-15 01:00:00,
2013-02-14 20:05:00,31.7,21.6,29.91,SE,135,0.4,0.4,66,0.00,,,0.00,WUHU216HW,2013-02-15 01:05:00,
2013-02-14 20:30:00,30.6,20.9,29.91,SE,135,0.0,0.0,67,0.00,,,0.00,WUHU216HW,2013-02-15 01:30:00,
2013-02-14 20:35:00,30.6,20.9,29.91,SE,135,0.0,0.0,67,0.00,,,0.00,WUHU216HW,2013-02-15 01:35:00,
2013-02-14 21:00:00,29.3,20.4,29.91,SE,135,0.0,0.0,69,0.00,,,0.00,WUHU216HW,2013-02-15 02:00:00,
2013-02-14 21:05:00,29.3,20.4,29.91,SE,135,0.0,0.0,69,0.00,,,0.00,WUHU216HW,2013-02-15 02:05:00,
2013-02-14 21:30:00,28.3,19.8,29.91,SE,135,0.0,0.0,70,2.59,,,0.00,WUHU216HW,2013-02-15 02:30:00,
2013-02-14 21:35:00,28.3,19.8,29.91,SE,135,0.0,0.0,70,2.59,,,0.00,WUHU216HW,2013-02-15 02:35:00,
2013-02-14 22:00:00,29.2,21.2,29.91,SE,135,0.0,0.0,72,0.00,,,0.00,WUHU216HW,2013-02-15 03:00:00,
2013-02-14 22:05:00,29.2,21.2,29.91,SE,135,0.0,0.0,72,0.00,,,0.00,WUHU216HW,2013-02-15 03:05:00,
2013-02-14 22:30:00,30.6,23.2,29.91,South,180,0.0,0.0,74,0.00,,,0.00,WUHU216HW,2013-02-15 03:30:00,
2013-02-14 22:35:00,30.6,23.2,29.91,South,180,0.0,0.0,74,0.00,,,0.00,WUHU216HW,2013-02-15 03:35:00,
2013-02-14 23:00:00,31.1,23.5,29.91,SSW,203,0.0,0.0,73,0.00,,,0.00,WUHU216HW,2013-02-15 04:00:00,
2013-02-14 23:05:00,31.1,23.5,29.91,SSW,203,0.0,0.0,73,0.00,,,0.00,WUHU216HW,2013-02-15 04:05:00,
2013-02-14 23:30:00,30.4,22.8,29.91,SE,135,0.0,0.0,73,0.00,,,0.00,WUHU216HW,2013-02-15 04:30:00,
2013-02-14 23:35:00,30.4,22.8,29.91,SE,135,0.0,0.0,73,0.00,,,0.00,WUHU216HW,2013-02-15 04:35:00,